createdAt,value
2022-10-25T00:01:49.604Z,99007.56
2022-10-25T00:04:18.759Z,99018.00
2022-10-25T00:06:46.560Z,99028.47
2022-10-25T00:09:15.485Z,99037.28
2022-10-25T00:11:43.617Z,99037.81
2022-10-25T00:14:19.775Z,99038.09
2022-10-25T00:16:48.649Z,99042.75
2022-10-25T00:19:16.484Z,99061.44
2022-10-25T00:21:45.912Z,99063.38
2022-10-25T00:24:15.051Z,99049.09
2022-10-25T00:26:43.938Z,99047.41
2022-10-25T00:29:12.673Z,99056.75
2022-10-25T00:31:40.617Z,99072.72
2022-10-25T00:34:08.243Z,99069.69
2022-10-25T00:36:36.314Z,99069.41
2022-10-25T00:39:04.171Z,99065.25
2022-10-25T00:41:37.601Z,99063.88
2022-10-25T00:44:47.750Z,99068.31
2022-10-25T00:47:21.290Z,99060.31
2022-10-25T00:50:07.200Z,99045.16
2022-10-25T00:52:38.333Z,99037.44
2022-10-25T00:55:10.857Z,99028.91
2022-10-25T00:58:06.686Z,99037.66
2022-10-25T01:00:34.288Z,99048.66
2022-10-25T01:03:02.481Z,99056.09
2022-10-25T01:05:30.105Z,99056.63
2022-10-25T01:07:58.131Z,99058.56
2022-10-25T01:10:27.308Z,99054.13
2022-10-25T01:12:58.307Z,99055.25
2022-10-25T01:15:56.378Z,99035.72
2022-10-25T01:18:43.584Z,99040.94
2022-10-25T01:21:32.367Z,99033.25
2022-10-25T01:24:10.704Z,99040.69
2022-10-25T01:27:05.279Z,99034.63
2022-10-25T01:30:06.371Z,99032.69
2022-10-25T01:33:34.500Z,99042.59
2022-10-25T01:36:41.422Z,99044.22
2022-10-25T01:39:18.475Z,99050.28
2022-10-25T01:42:07.177Z,99057.16
2022-10-25T01:44:54.682Z,99059.03
2022-10-25T01:47:40.094Z,99051.84
2022-10-25T01:50:23.337Z,99053.22
2022-10-25T01:52:51.359Z,99046.00
2022-10-25T01:55:22.609Z,99057.53
2022-10-25T01:58:32.756Z,99056.44
2022-10-25T02:01:26.358Z,99049.00
2022-10-25T02:04:32.688Z,99057.75
2022-10-25T02:07:11.371Z,99073.69
2022-10-25T02:10:17.422Z,99067.94
2022-10-25T02:13:02.698Z,99067.41
2022-10-25T02:15:41.086Z,99060.28
2022-10-25T02:18:17.475Z,99052.88
2022-10-25T02:20:47.954Z,99061.66
2022-10-25T02:23:18.672Z,99060.56
2022-10-25T02:25:46.475Z,99070.22
2022-10-25T02:28:17.859Z,99063.63
2022-10-25T02:30:46.401Z,99059.53
2022-10-25T02:33:14.079Z,99068.34
2022-10-25T02:35:42.265Z,99069.16
2022-10-25T02:38:10.991Z,99075.50
2022-10-25T02:40:38.923Z,99063.41
2022-10-25T02:43:07.171Z,99062.03
2022-10-25T02:45:34.875Z,99062.03
2022-10-25T02:48:09.194Z,99055.47
2022-10-25T02:50:37.706Z,99065.91
2022-10-25T02:53:05.179Z,99059.31
2022-10-25T02:55:33.498Z,99073.59
2022-10-25T02:58:01.376Z,99065.38
2022-10-25T03:00:30.525Z,99054.94
2022-10-25T03:03:07.954Z,99051.91
2022-10-25T03:05:38.468Z,99057.41
2022-10-25T03:08:06.158Z,99062.38
2022-10-25T03:10:36.565Z,99064.03
2022-10-25T03:13:04.281Z,99071.19
2022-10-25T03:15:31.889Z,99073.94
2022-10-25T03:18:01.413Z,99081.34
2022-10-25T03:20:29.580Z,99083.00
2022-10-25T03:22:58.629Z,99076.41
2022-10-25T03:25:26.585Z,99081.94
2022-10-25T03:27:54.908Z,99084.38
2022-10-25T03:30:22.773Z,99096.78
2022-10-25T03:32:50.768Z,99106.16
2022-10-25T03:35:18.617Z,99089.06
2022-10-25T03:37:50.028Z,99089.06
2022-10-25T03:40:19.324Z,99080.00
2022-10-25T03:42:47.856Z,99078.63
2022-10-25T03:45:15.471Z,99066.81
2022-10-25T03:47:43.533Z,99071.75
2022-10-25T03:50:13.091Z,99077.78
2022-10-25T03:52:41.129Z,99067.34
2022-10-25T03:55:09.687Z,99075.25
2022-10-25T03:57:37.648Z,99060.94
2022-10-25T04:00:06.489Z,99058.19
2022-10-25T04:02:34.978Z,99058.19
2022-10-25T04:05:04.246Z,99053.22
2022-10-25T04:07:33.307Z,99055.16
2022-10-25T04:10:01.285Z,99052.72
2022-10-25T04:12:30.439Z,99054.91
2022-10-25T04:14:59.208Z,99051.06
2022-10-25T04:17:27.957Z,99052.44
2022-10-25T04:19:55.818Z,99043.94
2022-10-25T04:22:24.034Z,99039.00
2022-10-25T04:24:51.979Z,99039.00
2022-10-25T04:27:19.568Z,99050.28
2022-10-25T04:29:47.581Z,99048.66
2022-10-25T04:32:15.418Z,99044.78
2022-10-25T04:34:43.896Z,99046.97
2022-10-25T04:37:12.293Z,99045.06
2022-10-25T04:39:40.796Z,99048.06
2022-10-25T04:44:36.823Z,99061.28
2022-10-25T04:47:06.579Z,99058.81
2022-10-25T04:49:43.251Z,99068.44
2022-10-25T04:52:13.487Z,99080.25
2022-10-25T04:54:41.719Z,99093.75
2022-10-25T04:57:09.595Z,99092.09
2022-10-25T04:59:37.079Z,99081.63
2022-10-25T05:02:05.717Z,99082.19
2022-10-25T05:04:33.470Z,99090.41
2022-10-25T05:07:01.407Z,99082.47
2022-10-25T05:09:28.986Z,99080.22
2022-10-25T05:12:02.242Z,99073.59
2022-10-25T05:14:30.688Z,99073.91
2022-10-25T05:16:58.406Z,99082.41
2022-10-25T05:32:13.607Z,99086.25
2022-10-25T05:34:41.915Z,99083.47
2022-10-25T05:37:10.529Z,99098.88
2022-10-25T05:39:38.515Z,99104.13
2022-10-25T05:42:06.754Z,99123.38
2022-10-25T05:44:34.294Z,99118.69
2022-10-25T05:47:01.994Z,99133.81
2022-10-25T05:49:29.584Z,99143.41
2022-10-25T05:51:58.142Z,99158.81
2022-10-25T05:54:25.682Z,99157.72
2022-10-25T05:56:53.279Z,99175.06
2022-10-25T05:59:20.749Z,99165.72
2022-10-25T06:01:48.483Z,99164.59
2022-10-25T06:04:17.114Z,99159.09
2022-10-25T06:06:47.205Z,99158.84
2022-10-25T06:09:15.056Z,99158.03
2022-10-25T06:11:42.749Z,99154.44
2022-10-25T06:14:11.679Z,99158.84
2022-10-25T06:16:42.641Z,99167.69
2022-10-25T06:19:10.597Z,99173.97
2022-10-25T06:21:38.451Z,99178.38
2022-10-25T06:24:06.704Z,99181.72
2022-10-25T06:26:34.283Z,99185.31
2022-10-25T06:29:04.442Z,99189.97
2022-10-25T06:31:34.206Z,99179.22
2022-10-25T06:34:02.934Z,99193.81
2022-10-25T06:36:31.848Z,99184.97
2022-10-25T06:39:05.544Z,99181.44
2022-10-25T06:41:33.872Z,99189.94
2022-10-25T06:44:06.294Z,99186.59
2022-10-25T06:47:11.522Z,99184.69
2022-10-25T06:49:25.774Z,99167.63
2022-10-25T06:51:53.352Z,99166.22
2022-10-25T06:54:20.911Z,99160.47
2022-10-25T06:56:48.468Z,99150.84
2022-10-25T06:59:16.028Z,99163.22
2022-10-25T07:01:43.695Z,99181.94
2022-10-25T07:04:11.361Z,99175.09
2022-10-25T07:06:39.407Z,99167.69
2022-10-25T07:09:09.371Z,99158.59
2022-10-25T07:11:36.996Z,99157.81
2022-10-25T07:14:04.852Z,99154.56
2022-10-25T07:16:33.152Z,99168.31
2022-10-25T07:19:03.025Z,99169.13
2022-10-25T07:21:32.766Z,99174.94
2022-10-25T07:24:01.273Z,99179.63
2022-10-25T07:26:35.381Z,99187.09
2022-10-25T07:29:04.096Z,99198.63
2022-10-25T07:31:35.789Z,99189.53
2022-10-25T07:34:05.502Z,99190.66
2022-10-25T07:36:33.933Z,99187.38
2022-10-25T07:39:04.463Z,99197.28
2022-10-25T07:41:32.003Z,99201.19
2022-10-25T07:43:59.560Z,99207.28
2022-10-25T07:46:28.149Z,99206.19
2022-10-25T07:48:55.694Z,99201.53
2022-10-25T07:51:23.271Z,99203.75
2022-10-25T07:53:50.903Z,99215.03
2022-10-25T07:56:23.483Z,99208.38
2022-10-25T07:58:52.782Z,99218.06
2022-10-25T08:01:28.843Z,99197.66
2022-10-25T08:03:57.401Z,99192.16
2022-10-25T08:06:26.450Z,99185.84
2022-10-25T08:08:54.462Z,99181.69
2022-10-25T08:11:22.118Z,99188.91
2022-10-25T08:13:51.021Z,99193.31
2022-10-25T08:16:19.362Z,99191.41
2022-10-25T08:18:49.192Z,99200.53
2022-10-25T08:21:17.015Z,99187.00
2022-10-25T08:23:44.629Z,99193.34
2022-10-25T08:26:12.102Z,99188.16
2022-10-25T08:28:40.987Z,99192.34
2022-10-25T08:31:08.716Z,99196.78
2022-10-25T08:33:36.280Z,99194.59
2022-10-25T08:36:04.414Z,99195.97
2022-10-25T08:38:34.407Z,99204.28
2022-10-25T08:41:14.862Z,99215.31
2022-10-25T08:44:09.604Z,99205.09
2022-10-25T08:46:41.648Z,99213.63
2022-10-25T08:50:05.669Z,99200.13
2022-10-25T08:52:53.853Z,99203.97
2022-10-25T08:55:44.559Z,99208.66
2022-10-25T08:58:37.825Z,99199.56
2022-10-25T09:01:17.367Z,99196.59
2022-10-25T09:03:45.366Z,99200.16
2022-10-25T09:06:54.671Z,99206.50
2022-10-25T09:09:46.467Z,99197.66
2022-10-25T09:13:10.879Z,99198.22
2022-10-25T09:16:10.853Z,99189.97
2022-10-25T09:18:48.884Z,99201.28
2022-10-25T09:21:54.959Z,99200.13
2022-10-25T09:24:57.722Z,99219.72
2022-10-25T09:27:44.109Z,99204.88
2022-10-25T09:30:13.477Z,99207.34
2022-10-25T09:32:51.450Z,99207.06
2022-10-25T09:35:46.860Z,99215.31
2022-10-25T09:38:26.701Z,99211.47
2022-10-25T09:41:23.886Z,99197.13
2022-10-25T09:44:18.343Z,99208.97
2022-10-25T09:47:24.806Z,99212.56
2022-10-25T09:49:59.694Z,99215.06
2022-10-25T09:52:46.840Z,99213.66
2022-10-25T09:55:40.155Z,99224.16
2022-10-25T09:58:23.525Z,99212.56
2022-10-25T10:00:53.254Z,99215.88
2022-10-25T10:03:21.685Z,99217.00
2022-10-25T10:06:09.217Z,99217.00
2022-10-25T10:08:37.119Z,99224.97
2022-10-25T10:11:05.727Z,99219.19
2022-10-25T10:14:15.226Z,99225.22
2022-10-25T10:16:53.504Z,99221.38
2022-10-25T10:19:26.013Z,99233.50
2022-10-25T10:22:09.701Z,99229.66
2022-10-25T10:24:43.090Z,99221.94
2022-10-25T10:27:29.998Z,99212.53
2022-10-25T10:30:07.393Z,99220.81
2022-10-25T10:32:37.758Z,99214.50
2022-10-25T10:35:11.883Z,99220.81
2022-10-25T10:37:39.302Z,99224.66
2022-10-25T10:40:23.867Z,99226.31
2022-10-25T10:42:52.175Z,99218.88
2022-10-25T10:45:22.361Z,99221.38
2022-10-25T10:47:49.689Z,99231.03
2022-10-25T10:50:29.218Z,99220.00
2022-10-25T10:53:00.970Z,99232.72
2022-10-25T10:55:47.592Z,99221.13
2022-10-25T10:58:34.504Z,99219.75
2022-10-25T11:01:08.099Z,99232.72
2022-10-25T11:03:58.872Z,99218.63
2022-10-25T11:06:36.500Z,99215.84
2022-10-25T11:09:13.256Z,99219.97
2022-10-25T11:11:41.561Z,99214.50
2022-10-25T11:14:22.736Z,99218.88
2022-10-25T11:17:17.048Z,99210.34
2022-10-25T11:20:00.038Z,99221.63
2022-10-25T11:22:57.953Z,99213.94
2022-10-25T11:25:42.930Z,99222.19
2022-10-25T11:28:44.675Z,99215.03
2022-10-25T11:31:58.311Z,99220.53
2022-10-25T11:34:39.701Z,99210.91
2022-10-25T11:37:32.567Z,99214.75
2022-10-25T11:40:39.939Z,99217.78
2022-10-25T11:43:49.961Z,99211.44
2022-10-25T11:46:59.023Z,99210.59
2022-10-25T11:49:56.982Z,99210.03
2022-10-25T11:53:20.405Z,99207.84
2022-10-25T11:56:19.438Z,99204.50
2022-10-25T11:59:20.994Z,99209.47
2022-10-25T12:02:04.597Z,99212.78
2022-10-25T12:04:55.061Z,99213.31
2022-10-25T12:08:02.269Z,99212.22
2022-10-25T12:10:41.650Z,99217.47
2022-10-25T12:13:25.339Z,99222.41
2022-10-25T12:15:56.918Z,99220.50
2022-10-25T12:18:37.947Z,99219.97
2022-10-25T12:29:52.059Z,99224.06
2022-10-25T12:32:39.204Z,99223.53
2022-10-25T12:35:33.157Z,99230.16
2022-10-25T12:38:07.374Z,99227.94
2022-10-25T12:40:44.528Z,99225.44
2022-10-25T12:43:57.723Z,99227.66
2022-10-25T12:46:38.541Z,99218.50
2022-10-25T12:49:23.868Z,99201.97
2022-10-25T12:52:20.973Z,99209.97
2022-10-25T12:55:18.234Z,99211.34
2022-10-25T12:58:17.972Z,99219.91
2022-10-25T13:01:10.672Z,99224.06
2022-10-25T13:04:06.300Z,99224.06
2022-10-25T13:20:26.906Z,99244.75
2022-10-25T13:45:24.387Z,99225.69
2022-10-25T13:48:01.286Z,99224.91
2022-10-25T13:50:34.876Z,99229.59
2022-10-25T13:53:26.366Z,99237.88
2022-10-25T13:56:03.802Z,99242.88
2022-10-25T13:58:32.306Z,99242.88
2022-10-25T14:01:18.555Z,99239.84
2022-10-25T14:03:54.478Z,99242.88
2022-10-25T14:06:41.408Z,99223.88
2022-10-25T14:09:40.018Z,99245.38
2022-10-25T14:12:20.387Z,99234.34
2022-10-25T14:15:05.092Z,99232.13
2022-10-25T14:17:40.968Z,99219.72
2022-10-25T14:20:16.937Z,99238.19
2022-10-25T14:22:53.672Z,99228.00
2022-10-25T14:25:53.375Z,99222.72
2022-10-25T14:28:31.156Z,99227.41
2022-10-25T14:31:05.851Z,99222.72
2022-10-25T14:33:46.704Z,99221.63
2022-10-25T14:36:33.223Z,99224.41
2022-10-25T14:39:25.675Z,99228.81
2022-10-25T14:41:56.274Z,99243.72
2022-10-25T14:44:29.629Z,99236.78
2022-10-25T14:46:59.822Z,99236.00
2022-10-25T14:49:28.137Z,99242.06
2022-10-25T14:52:03.447Z,99229.91
2022-10-25T14:54:34.807Z,99234.91
2022-10-25T14:57:10.856Z,99230.75
2022-10-25T14:59:47.091Z,99233.25
2022-10-25T15:02:30.483Z,99233.81
2022-10-25T15:05:00.590Z,99231.63
2022-10-25T15:07:38.742Z,99225.53
2022-10-25T15:10:07.834Z,99234.38
2022-10-25T15:12:41.731Z,99236.56
2022-10-25T15:15:36.535Z,99231.59
2022-10-25T15:18:05.227Z,99239.88
2022-10-25T15:20:37.104Z,99241.00
2022-10-25T15:23:20.997Z,99240.41
2022-10-25T15:25:51.120Z,99246.19
2022-10-25T15:28:19.905Z,99245.91
2022-10-25T15:30:50.251Z,99257.78
2022-10-25T15:33:27.441Z,99243.16
2022-10-25T15:36:03.865Z,99251.16
2022-10-25T15:39:05.502Z,99238.75
2022-10-25T15:41:23.541Z,99241.25
2022-10-25T15:43:52.069Z,99243.72
2022-10-25T15:46:35.905Z,99237.66
2022-10-25T15:49:08.628Z,99237.38
2022-10-25T15:51:40.881Z,99245.06
2022-10-25T15:54:21.860Z,99244.81
2022-10-25T15:56:50.231Z,99242.88
2022-10-25T15:59:17.883Z,99245.31
2022-10-25T16:04:21.246Z,99249.19
2022-10-25T16:06:49.034Z,99269.84
2022-10-25T16:09:16.831Z,99267.63
2022-10-25T16:11:48.358Z,99270.38
2022-10-25T16:14:26.523Z,99274.50
2022-10-25T16:16:54.465Z,99268.97
2022-10-25T16:19:22.292Z,99276.69
2022-10-25T16:21:50.200Z,99280.25
2022-10-25T16:24:18.323Z,99285.47
2022-10-25T16:26:48.740Z,99286.81
2022-10-25T16:29:24.386Z,99287.13
2022-10-25T16:31:53.910Z,99295.91
2022-10-25T16:34:21.523Z,99290.09
2022-10-25T16:36:53.643Z,99287.63
2022-10-25T16:39:22.407Z,99290.66
2022-10-25T16:41:52.120Z,99288.44
2022-10-25T16:44:20.425Z,99289.78
2022-10-25T16:46:48.136Z,99288.66
2022-10-25T16:49:15.654Z,99294.44
2022-10-25T16:51:44.998Z,99296.06
2022-10-25T16:54:13.220Z,99293.28
2022-10-25T16:56:41.048Z,99303.47
2022-10-25T16:59:08.792Z,99299.81
2022-10-25T17:01:41.273Z,99300.63
2022-10-25T17:04:11.587Z,99308.63
2022-10-25T17:06:41.620Z,99299.00
2022-10-25T17:09:09.873Z,99301.19
2022-10-25T17:11:37.560Z,99308.59
2022-10-25T17:14:05.324Z,99304.75
2022-10-25T17:16:33.537Z,99306.13
2022-10-25T17:19:03.270Z,99306.94
2022-10-25T17:21:33.359Z,99315.44
2022-10-25T17:24:01.007Z,99314.88
2022-10-25T17:26:29.119Z,99324.75
2022-10-25T17:28:58.864Z,99314.84
2022-10-25T17:31:28.369Z,99325.28
2022-10-25T17:33:57.056Z,99324.16
2022-10-25T17:36:24.613Z,99315.66
2022-10-25T17:38:56.754Z,99324.16
2022-10-25T17:41:24.783Z,99318.59
2022-10-25T17:43:55.928Z,99311.72
2022-10-25T17:46:29.579Z,99317.47
2022-10-25T17:49:03.936Z,99316.34
2022-10-25T17:51:33.172Z,99332.59
2022-10-25T17:54:01.132Z,99321.00
2022-10-25T17:56:29.285Z,99322.34
2022-10-25T17:59:04.324Z,99319.53
2022-10-25T18:01:36.142Z,99323.41
2022-10-25T18:04:04.345Z,99323.09
2022-10-25T18:06:32.225Z,99328.28
2022-10-25T18:09:00.393Z,99327.44
2022-10-25T18:11:28.841Z,99333.47
2022-10-25T18:14:00.101Z,99335.69
2022-10-25T18:16:31.141Z,99332.09
2022-10-25T18:19:02.264Z,99338.69
2022-10-25T18:21:30.755Z,99342.50
2022-10-25T18:24:02.820Z,99336.47
2022-10-25T18:26:31.643Z,99331.78
2022-10-25T18:28:59.829Z,99330.69
2022-10-25T18:31:28.285Z,99324.63
2022-10-25T18:33:56.394Z,99326.00
2022-10-25T18:36:23.894Z,99325.19
2022-10-25T18:38:52.517Z,99318.88
2022-10-25T18:41:27.062Z,99327.13
2022-10-25T18:43:55.423Z,99338.13
2022-10-25T18:46:24.189Z,99325.47
2022-10-25T18:48:55.198Z,99333.97
2022-10-25T18:51:28.475Z,99326.78
2022-10-25T18:54:02.288Z,99325.66
2022-10-25T18:56:31.340Z,99313.53
2022-10-25T18:58:59.871Z,99319.03
2022-10-25T19:01:36.473Z,99327.56
2022-10-25T19:04:05.315Z,99335.78
2022-10-25T19:06:34.533Z,99342.91
2022-10-25T19:09:06.048Z,99325.56
2022-10-25T19:11:47.971Z,99338.75
2022-10-25T19:14:15.829Z,99336.75
2022-10-25T19:16:45.049Z,99338.44
2022-10-25T19:19:12.587Z,99333.78
2022-10-25T19:21:40.153Z,99346.69
2022-10-25T19:24:11.997Z,99336.50
2022-10-25T19:26:39.856Z,99335.34
2022-10-25T19:29:07.236Z,99337.03
2022-10-25T19:31:34.863Z,99337.03
2022-10-25T19:34:03.553Z,99319.94
2022-10-25T19:36:32.359Z,99329.03
2022-10-25T19:39:01.609Z,99325.72
2022-10-25T19:41:29.250Z,99322.38
2022-10-25T19:44:04.788Z,99324.28
2022-10-25T19:46:33.940Z,99323.44
2022-10-25T19:49:01.525Z,99329.91
2022-10-25T19:51:29.392Z,99328.81
2022-10-25T19:53:56.964Z,99329.91
2022-10-25T19:56:24.767Z,99328.81
2022-10-25T19:58:55.456Z,99325.47
2022-10-25T20:01:27.451Z,99340.56
2022-10-25T20:04:02.950Z,99337.81
2022-10-25T20:06:45.579Z,99330.66
2022-10-25T20:09:22.648Z,99337.50
2022-10-25T20:11:50.526Z,99344.09
2022-10-25T20:14:18.229Z,99341.03
2022-10-25T20:16:45.776Z,99346.78
2022-10-25T20:19:14.584Z,99347.88
2022-10-25T20:21:43.747Z,99352.78
2022-10-25T20:24:11.756Z,99354.91
2022-10-25T20:26:44.758Z,99357.59
2022-10-25T20:29:21.273Z,99362.25
2022-10-25T20:31:57.303Z,99365.81
2022-10-25T20:34:27.636Z,99366.06
2022-10-25T20:36:55.008Z,99372.06
2022-10-25T20:39:22.467Z,99371.50
2022-10-25T20:41:49.785Z,99377.25
2022-10-25T20:44:17.183Z,99371.44
2022-10-25T20:46:44.809Z,99376.09
2022-10-25T20:49:14.300Z,99377.69
2022-10-25T20:51:41.874Z,99368.31
2022-10-25T20:54:10.131Z,99370.22
2022-10-25T20:56:39.855Z,99380.03
2022-10-25T20:59:08.324Z,99383.03
2022-10-25T21:01:36.099Z,99383.31
2022-10-25T21:04:03.711Z,99380.81
2022-10-25T21:06:31.313Z,99384.91
2022-10-25T21:08:58.916Z,99377.97
2022-10-25T21:11:29.180Z,99382.06
2022-10-25T21:13:56.702Z,99379.56
2022-10-25T21:16:33.425Z,99379.00
2022-10-25T21:19:04.646Z,99374.00
2022-10-25T21:21:32.395Z,99389.81
2022-10-25T21:24:00.643Z,99384.84
2022-10-25T21:26:28.235Z,99388.91
2022-10-25T21:28:55.715Z,99387.84
2022-10-25T21:31:23.407Z,99397.50
2022-10-25T21:33:52.522Z,99389.41
2022-10-25T21:36:22.096Z,99386.34
2022-10-25T21:38:49.787Z,99383.00
2022-10-25T21:41:23.430Z,99392.34
2022-10-25T21:43:51.210Z,99389.28
2022-10-25T21:46:21.518Z,99398.59
2022-10-25T21:48:52.959Z,99392.78
2022-10-25T21:51:22.296Z,99380.59
2022-10-25T21:53:49.882Z,99388.84
2022-10-25T21:56:20.687Z,99391.81
2022-10-25T21:58:53.551Z,99394.56
2022-10-25T22:01:24.564Z,99389.81
2022-10-25T22:03:53.359Z,99390.31
2022-10-25T22:06:23.623Z,99388.91
2022-10-25T22:08:55.489Z,99395.47
2022-10-25T22:11:33.971Z,99390.47
2022-10-25T22:14:06.146Z,99386.09
2022-10-25T22:16:35.221Z,99385.81
2022-10-25T22:19:08.059Z,99384.44
2022-10-25T22:21:38.839Z,99382.75
2022-10-25T22:24:08.593Z,99386.84
2022-10-25T22:26:38.005Z,99385.16
2022-10-25T22:29:05.867Z,99396.63
2022-10-25T22:31:34.629Z,99392.72
2022-10-25T22:34:06.633Z,99391.91
2022-10-25T22:36:40.097Z,99408.06
2022-10-25T22:39:08.645Z,99400.13
2022-10-25T22:41:36.461Z,99399.28
2022-10-25T22:44:04.907Z,99398.44
2022-10-25T22:46:35.382Z,99387.66
2022-10-25T22:49:08.914Z,99396.69
2022-10-25T22:51:37.695Z,99401.59
2022-10-25T22:54:05.420Z,99397.69
2022-10-25T22:56:34.080Z,99401.75
2022-10-25T22:59:04.875Z,99402.00
2022-10-25T23:01:38.268Z,99402.84
2022-10-25T23:04:08.625Z,99406.41
2022-10-25T23:06:39.779Z,99410.72
2022-10-25T23:09:10.919Z,99400.84
2022-10-25T23:11:40.652Z,99409.28
2022-10-25T23:14:14.863Z,99410.13
2022-10-25T23:16:45.411Z,99400.84
2022-10-25T23:19:13.099Z,99406.41
2022-10-25T23:21:40.592Z,99416.28
2022-10-25T23:24:09.384Z,99408.66
2022-10-25T23:26:36.923Z,99412.78
2022-10-25T23:29:05.202Z,99403.75
2022-10-25T23:31:33.166Z,99407.09
2022-10-25T23:34:01.448Z,99399.69
2022-10-25T23:36:37.826Z,99410.06
2022-10-25T23:39:07.635Z,99407.91
2022-10-25T23:41:35.338Z,99404.91
2022-10-25T23:44:03.014Z,99403.00
2022-10-25T23:46:30.449Z,99398.34
2022-10-25T23:48:58.196Z,99395.63
2022-10-25T23:51:25.650Z,99402.16
2022-10-25T23:53:53.158Z,99407.09
2022-10-25T23:56:20.815Z,99411.41
2022-10-25T23:58:53.779Z,99412.13
